sensor_id;sensor_type;location;lat;lon;timestamp;pressure;altitude;pressure_sealevel;temperature;humidity
61136;BME280;47021;51.340;12.432;2023-03-07T06:28:23;98258.63;;;7.08;59.53
61136;BME280;47021;51.340;12.432;2023-03-07T06:30:49;98252.84;;;6.96;60.53
61136;BME280;47021;51.340;12.432;2023-03-07T06:33:14;98256.63;;;7.28;59.63
61136;BME280;47021;51.340;12.432;2023-03-07T06:35:48;98250.88;;;7.16;59.75
61136;BME280;47021;51.340;12.432;2023-03-07T06:38:14;98246.19;;;7.45;59.42
61136;BME280;47021;51.340;12.432;2023-03-07T06:40:59;98245.63;;;7.34;59.54
61136;BME280;47021;51.340;12.432;2023-03-07T06:46:33;98241.97;;;7.44;59.46
61136;BME280;47021;51.340;12.432;2023-03-07T06:57:17;98249.91;;;7.43;59.89
61136;BME280;47021;51.340;12.432;2023-03-07T06:59:45;98256.38;;;7.64;59.17
61136;BME280;47021;51.340;12.432;2023-03-07T07:02:12;98251.41;;;7.79;58.68
61136;BME280;47021;51.340;12.432;2023-03-07T07:04:37;98250.78;;;7.51;59.62
61136;BME280;47021;51.340;12.432;2023-03-07T07:07:03;98248.75;;;7.71;59.02
61136;BME280;47021;51.340;12.432;2023-03-07T07:09:30;98241.75;;;7.97;58.32
61136;BME280;47021;51.340;12.432;2023-03-07T07:12:01;98244.34;;;7.97;58.39
61136;BME280;47021;51.340;12.432;2023-03-07T07:14:33;98238.63;;;7.94;58.11
61136;BME280;47021;51.340;12.432;2023-03-07T07:17:09;98239.78;;;7.57;59.33
61136;BME280;47021;51.340;12.432;2023-03-07T07:19:35;98235.03;;;7.87;59.01
61136;BME280;47021;51.340;12.432;2023-03-07T07:22:14;98240.34;;;7.77;58.90
61136;BME280;47021;51.340;12.432;2023-03-07T07:24:40;98236.91;;;7.43;59.81
61136;BME280;47021;51.340;12.432;2023-03-07T07:27:07;98238.25;;;7.80;58.77
61136;BME280;47021;51.340;12.432;2023-03-07T07:29:40;98236.78;;;7.78;59.50
61136;BME280;47021;51.340;12.432;2023-03-07T07:32:05;98236.84;;;7.94;58.55
61136;BME280;47021;51.340;12.432;2023-03-07T07:34:31;98239.03;;;7.73;59.20
61136;BME280;47021;51.340;12.432;2023-03-07T07:36:57;98232.72;;;8.25;58.05
61136;BME280;47021;51.340;12.432;2023-03-07T07:41:57;98229.94;;;8.11;58.59
61136;BME280;47021;51.340;12.432;2023-03-07T07:44:28;98228.63;;;8.15;58.20
61136;BME280;47021;51.340;12.432;2023-03-07T07:46:53;98230.41;;;8.14;58.48
61136;BME280;47021;51.340;12.432;2023-03-07T07:52:17;98226.81;;;8.07;58.52
61136;BME280;47021;51.340;12.432;2023-03-07T07:54:42;98220.09;;;8.30;58.16
61136;BME280;47021;51.340;12.432;2023-03-07T07:57:09;98225.50;;;8.03;58.54
61136;BME280;47021;51.340;12.432;2023-03-07T07:59:48;98224.19;;;8.49;57.85
61136;BME280;47021;51.340;12.432;2023-03-07T08:02:14;98218.38;;;8.05;58.63
61136;BME280;47021;51.340;12.432;2023-03-07T08:04:47;98218.81;;;7.93;58.83
61136;BME280;47021;51.340;12.432;2023-03-07T08:07:13;98216.06;;;8.52;57.71
61136;BME280;47021;51.340;12.432;2023-03-07T08:09:39;98210.69;;;8.70;56.51
61136;BME280;47021;51.340;12.432;2023-03-07T08:12:08;98207.94;;;8.63;56.76
61136;BME280;47021;51.340;12.432;2023-03-07T08:14:35;98211.50;;;8.78;56.02
61136;BME280;47021;51.340;12.432;2023-03-07T08:17:01;98201.44;;;8.67;56.36
61136;BME280;47021;51.340;12.432;2023-03-07T08:19:28;98202.91;;;8.62;56.49
61136;BME280;47021;51.340;12.432;2023-03-07T08:21:54;98212.63;;;8.92;56.17
61136;BME280;47021;51.340;12.432;2023-03-07T08:24:25;98210.00;;;9.24;55.22
61136;BME280;47021;51.340;12.432;2023-03-07T08:26:52;98213.47;;;8.84;56.17
61136;BME280;47021;51.340;12.432;2023-03-07T08:29:20;98208.72;;;9.12;55.22
61136;BME280;47021;51.340;12.432;2023-03-07T08:31:46;98202.22;;;9.08;55.20
61136;BME280;47021;51.340;12.432;2023-03-07T08:34:13;98198.63;;;9.25;54.57
61136;BME280;47021;51.340;12.432;2023-03-07T08:36:39;98207.63;;;8.82;56.21
61136;BME280;47021;51.340;12.432;2023-03-07T08:39:05;98203.88;;;8.52;56.58
61136;BME280;47021;51.340;12.432;2023-03-07T08:41:36;98195.88;;;8.78;56.13
61136;BME280;47021;51.340;12.432;2023-03-07T08:44:02;98199.94;;;8.97;56.05
61136;BME280;47021;51.340;12.432;2023-03-07T08:46:27;98193.81;;;9.53;54.57
61136;BME280;47021;51.340;12.432;2023-03-07T08:48:52;98191.19;;;8.98;55.17
61136;BME280;47021;51.340;12.432;2023-03-07T08:51:19;98181.03;;;9.19;55.13
61136;BME280;47021;51.340;12.432;2023-03-07T08:53:45;98182.38;;;8.99;55.18
61136;BME280;47021;51.340;12.432;2023-03-07T08:56:12;98191.00;;;8.99;55.76
61136;BME280;47021;51.340;12.432;2023-03-07T09:01:22;98196.00;;;9.17;54.99
61136;BME280;47021;51.340;12.432;2023-03-07T09:03:54;98197.63;;;9.34;54.39
61136;BME280;47021;51.340;12.432;2023-03-07T09:06:22;98193.78;;;9.61;55.92
61136;BME280;47021;51.340;12.432;2023-03-07T09:08:48;98182.06;;;9.02;56.04
61136;BME280;47021;51.340;12.432;2023-03-07T09:11:13;98196.34;;;9.06;55.40
61136;BME280;47021;51.340;12.432;2023-03-07T09:13:40;98188.94;;;8.71;57.33
61136;BME280;47021;51.340;12.432;2023-03-07T09:16:06;98179.47;;;8.86;56.53
61136;BME280;47021;51.340;12.432;2023-03-07T09:18:32;98169.88;;;9.49;55.33
61136;BME280;47021;51.340;12.432;2023-03-07T09:20:58;98176.63;;;9.74;54.60
61136;BME280;47021;51.340;12.432;2023-03-07T09:23:25;98175.97;;;9.72;54.48
61136;BME280;47021;51.340;12.432;2023-03-07T09:25:50;98178.44;;;9.74;54.30
61136;BME280;47021;51.340;12.432;2023-03-07T09:28:28;98169.78;;;9.27;55.54
61136;BME280;47021;51.340;12.432;2023-03-07T09:30:54;98173.47;;;9.87;54.42
61136;BME280;47021;51.340;12.432;2023-03-07T09:33:32;98169.28;;;9.78;54.50
61136;BME280;47021;51.340;12.432;2023-03-07T09:38:41;98157.97;;;9.85;53.95
61136;BME280;47021;51.340;12.432;2023-03-07T09:51:47;98156.69;;;9.89;54.56
61136;BME280;47021;51.340;12.432;2023-03-07T09:54:22;98143.63;;;10.20;53.44
61136;BME280;47021;51.340;12.432;2023-03-07T09:56:51;98149.44;;;10.30;52.98
61136;BME280;47021;51.340;12.432;2023-03-07T09:59:20;98144.63;;;9.88;53.87
61136;BME280;47021;51.340;12.432;2023-03-07T10:02:04;98134.59;;;10.53;52.72
61136;BME280;47021;51.340;12.432;2023-03-07T10:04:41;98140.25;;;10.20;53.15
61136;BME280;47021;51.340;12.432;2023-03-07T10:07:14;98130.41;;;9.68;54.45
61136;BME280;47021;51.340;12.432;2023-03-07T10:09:41;98144.56;;;9.66;54.50
61136;BME280;47021;51.340;12.432;2023-03-07T10:15:01;98139.63;;;10.10;53.91
61136;BME280;47021;51.340;12.432;2023-03-07T10:22:47;98119.47;;;10.49;52.32
61136;BME280;47021;51.340;12.432;2023-03-07T10:25:18;98127.34;;;10.41;52.78
61136;BME280;47021;51.340;12.432;2023-03-07T10:27:49;98121.97;;;10.94;51.79
61136;BME280;47021;51.340;12.432;2023-03-07T10:30:23;98125.94;;;11.05;51.47
61136;BME280;47021;51.340;12.432;2023-03-07T10:35:40;98111.28;;;10.29;53.71
61136;BME280;47021;51.340;12.432;2023-03-07T10:41:13;98111.91;;;10.09;53.54
61136;BME280;47021;51.340;12.432;2023-03-07T10:43:38;98120.19;;;9.89;54.56
61136;BME280;47021;51.340;12.432;2023-03-07T10:46:14;98114.88;;;10.06;54.07
61136;BME280;47021;51.340;12.432;2023-03-07T10:48:46;98111.91;;;9.55;55.24
61136;BME280;47021;51.340;12.432;2023-03-07T10:54:03;98114.81;;;10.36;55.06
61136;BME280;47021;51.340;12.432;2023-03-07T10:56:35;98136.59;;;9.67;56.36
61136;BME280;47021;51.340;12.432;2023-03-07T10:59:08;98110.06;;;9.94;55.50
61136;BME280;47021;51.340;12.432;2023-03-07T11:01:34;98093.53;;;9.79;55.36
61136;BME280;47021;51.340;12.432;2023-03-07T11:06:56;98097.16;;;9.70;55.47
61136;BME280;47021;51.340;12.432;2023-03-07T11:09:26;98104.72;;;9.57;55.70
61136;BME280;47021;51.340;12.432;2023-03-07T11:11:59;98097.69;;;9.88;55.04
61136;BME280;47021;51.340;12.432;2023-03-07T11:14:47;98073.91;;;9.91;54.84
61136;BME280;47021;51.340;12.432;2023-03-07T11:22:46;98068.28;;;10.03;52.65
61136;BME280;47021;51.340;12.432;2023-03-07T11:30:20;98066.56;;;10.55;52.00
61136;BME280;47021;51.340;12.432;2023-03-07T11:41:23;98046.78;;;11.19;50.46
61136;BME280;47021;51.340;12.432;2023-03-07T11:43:45;98032.28;;;10.58;51.13
61136;BME280;47021;51.340;12.432;2023-03-07T11:49:12;98040.88;;;10.29;52.69
61136;BME280;47021;51.340;12.432;2023-03-07T12:13:35;98001.88;;;11.30;50.22
61136;BME280;47021;51.340;12.432;2023-03-07T12:43:44;97985.66;;;10.84;49.23
61136;BME280;47021;51.340;12.432;2023-03-07T12:51:31;97996.47;;;10.81;49.62
61136;BME280;47021;51.340;12.432;2023-03-07T12:54:07;97984.41;;;10.22;50.62
61136;BME280;47021;51.340;12.432;2023-03-07T12:59:28;98002.38;;;10.09;51.73
61136;BME280;47021;51.340;12.432;2023-03-07T13:04:40;97995.72;;;9.91;51.71
61136;BME280;47021;51.340;12.432;2023-03-07T13:07:12;98004.00;;;10.32;51.42
61136;BME280;47021;51.340;12.432;2023-03-07T13:12:44;97989.34;;;9.94;52.43
61136;BME280;47021;51.340;12.432;2023-03-07T13:23:37;98006.81;;;9.85;53.76
61136;BME280;47021;51.340;12.432;2023-03-07T13:26:21;98018.97;;;9.93;53.45
61136;BME280;47021;51.340;12.432;2023-03-07T13:29:04;98001.59;;;10.31;53.49
61136;BME280;47021;51.340;12.432;2023-03-07T13:31:36;98010.72;;;10.27;53.27
61136;BME280;47021;51.340;12.432;2023-03-07T14:13:19;97989.00;;;10.49;51.00
61136;BME280;47021;51.340;12.432;2023-03-07T14:16:07;97995.59;;;10.45;51.16
61136;BME280;47021;51.340;12.432;2023-03-07T14:22:16;98000.25;;;10.49;51.55
61136;BME280;47021;51.340;12.432;2023-03-07T14:27:10;97999.50;;;10.41;51.49
61136;BME280;47021;51.340;12.432;2023-03-07T14:55:13;98100.06;;;6.16;65.75
61136;BME280;47021;51.340;12.432;2023-03-07T14:57:40;98094.81;;;5.91;67.67
61136;BME280;47021;51.340;12.432;2023-03-07T15:00:20;98095.75;;;6.25;66.34
61136;BME280;47021;51.340;12.432;2023-03-07T15:02:56;98105.09;;;5.55;67.88
61136;BME280;47021;51.340;12.432;2023-03-07T15:05:34;98118.25;;;5.44;68.99
61136;BME280;47021;51.340;12.432;2023-03-07T15:08:01;98122.75;;;5.42;69.62
61136;BME280;47021;51.340;12.432;2023-03-07T15:10:29;98135.78;;;5.14;70.73
61136;BME280;47021;51.340;12.432;2023-03-07T15:12:56;98142.25;;;4.90;71.19
61136;BME280;47021;51.340;12.432;2023-03-07T15:15:34;98151.34;;;4.48;72.38
61136;BME280;47021;51.340;12.432;2023-03-07T15:20:44;98155.72;;;4.28;73.14
61136;BME280;47021;51.340;12.432;2023-03-07T15:23:21;98154.88;;;4.57;72.28
61136;BME280;47021;51.340;12.432;2023-03-07T15:25:49;98161.00;;;4.56;72.62
61136;BME280;47021;51.340;12.432;2023-03-07T15:28:31;98154.75;;;4.39;73.74
61136;BME280;47021;51.340;12.432;2023-03-07T15:30:57;98155.25;;;4.71;72.42
61136;BME280;47021;51.340;12.432;2023-03-07T15:33:24;98151.28;;;4.77;72.04
61136;BME280;47021;51.340;12.432;2023-03-07T15:38:34;98148.09;;;5.02;71.45
61136;BME280;47021;51.340;12.432;2023-03-07T15:40:59;98155.91;;;4.92;71.63
61136;BME280;47021;51.340;12.432;2023-03-07T15:43:33;98164.38;;;4.66;71.81
61136;BME280;47021;51.340;12.432;2023-03-07T15:46:15;98153.91;;;5.14;71.20
61136;BME280;47021;51.340;12.432;2023-03-07T15:48:48;98162.56;;;4.95;71.17
61136;BME280;47021;51.340;12.432;2023-03-07T15:51:25;98157.75;;;4.54;72.79
61136;BME280;47021;51.340;12.432;2023-03-07T15:54:19;98160.34;;;4.44;72.74
61136;BME280;47021;51.340;12.432;2023-03-07T15:56:45;98165.75;;;4.32;73.44
61136;BME280;47021;51.340;12.432;2023-03-07T15:59:17;98162.38;;;4.02;74.48
61136;BME280;47021;51.340;12.432;2023-03-07T16:01:46;98181.78;;;4.54;73.18
61136;BME280;47021;51.340;12.432;2023-03-07T16:04:28;98176.22;;;4.59;73.61
61136;BME280;47021;51.340;12.432;2023-03-07T16:06:56;98177.94;;;4.87;72.12
61136;BME280;47021;51.340;12.432;2023-03-07T16:09:34;98193.34;;;4.79;72.04
61136;BME280;47021;51.340;12.432;2023-03-07T16:12:10;98192.50;;;4.88;72.32
61136;BME280;47021;51.340;12.432;2023-03-07T16:14:36;98192.75;;;5.04;71.20
61136;BME280;47021;51.340;12.432;2023-03-07T16:17:20;98197.84;;;5.23;70.86
61136;BME280;47021;51.340;12.432;2023-03-07T16:19:48;98177.28;;;5.58;71.91
61136;BME280;47021;51.340;12.432;2023-03-07T16:22:24;98193.53;;;5.14;71.20
61136;BME280;47021;51.340;12.432;2023-03-07T16:25:02;98187.94;;;5.19;70.80
61136;BME280;47021;51.340;12.432;2023-03-07T16:27:28;98189.03;;;5.16;71.30
61136;BME280;47021;51.340;12.432;2023-03-07T16:30:00;98186.31;;;5.18;69.93
61136;BME280;47021;51.340;12.432;2023-03-07T16:32:26;98189.63;;;5.00;71.04
61136;BME280;47021;51.340;12.432;2023-03-07T16:34:51;98195.69;;;5.19;70.74
61136;BME280;47021;51.340;12.432;2023-03-07T16:40:02;98206.94;;;4.81;71.53
61136;BME280;47021;51.340;12.432;2023-03-07T16:42:27;98204.72;;;4.95;71.29
61136;BME280;47021;51.340;12.432;2023-03-07T16:44:55;98203.03;;;5.23;70.74
61136;BME280;47021;51.340;12.432;2023-03-07T16:47:21;98199.91;;;5.20;70.17
61136;BME280;47021;51.340;12.432;2023-03-07T16:49:49;98216.09;;;5.22;70.65
61136;BME280;47021;51.340;12.432;2023-03-07T16:52:15;98199.88;;;5.66;69.17
61136;BME280;47021;51.340;12.432;2023-03-07T16:54:42;98199.88;;;5.66;68.90
61136;BME280;47021;51.340;12.432;2023-03-07T16:59:42;98203.22;;;5.03;70.88
61136;BME280;47021;51.340;12.432;2023-03-07T17:02:16;98219.47;;;5.32;70.51
61136;BME280;47021;51.340;12.432;2023-03-07T17:04:42;98205.75;;;5.58;68.99
61136;BME280;47021;51.340;12.432;2023-03-07T17:07:18;98210.78;;;5.60;69.57
61136;BME280;47021;51.340;12.432;2023-03-07T17:12:35;98228.16;;;5.50;68.96
61136;BME280;47021;51.340;12.432;2023-03-07T17:15:20;98226.19;;;5.61;68.90
61136;BME280;47021;51.340;12.432;2023-03-07T17:17:54;98232.03;;;6.00;67.40
61136;BME280;47021;51.340;12.432;2023-03-07T17:20:33;98229.28;;;6.19;67.11
61136;BME280;47021;51.340;12.432;2023-03-07T17:22:59;98229.34;;;6.10;67.22
61136;BME280;47021;51.340;12.432;2023-03-07T17:25:38;98223.81;;;6.22;67.19
61136;BME280;47021;51.340;12.432;2023-03-07T17:28:11;98238.66;;;6.03;67.65
61136;BME280;47021;51.340;12.432;2023-03-07T17:30:37;98237.19;;;6.00;67.04
61136;BME280;47021;51.340;12.432;2023-03-07T17:33:04;98226.91;;;6.08;67.41
61136;BME280;47021;51.340;12.432;2023-03-07T17:35:30;98240.31;;;6.21;67.31
61136;BME280;47021;51.340;12.432;2023-03-07T17:37:56;98244.16;;;6.17;66.59
61136;BME280;47021;51.340;12.432;2023-03-07T17:40:36;98230.56;;;6.15;66.71
61136;BME280;47021;51.340;12.432;2023-03-07T17:43:18;98247.97;;;6.23;66.83
61136;BME280;47021;51.340;12.432;2023-03-07T18:02:38;98255.63;;;6.15;66.44
61136;BME280;47021;51.340;12.432;2023-03-07T18:07:51;98264.47;;;6.22;66.42
61136;BME280;47021;51.340;12.432;2023-03-07T18:13:05;98254.31;;;6.11;67.18
61136;BME280;47021;51.340;12.432;2023-03-07T18:16:09;98268.97;;;6.20;66.74
61136;BME280;47021;51.340;12.432;2023-03-07T18:24:20;98274.25;;;6.28;66.13
61136;BME280;47021;51.340;12.432;2023-03-07T18:26:48;98270.69;;;6.29;66.15
61136;BME280;47021;51.340;12.432;2023-03-07T18:29:37;98271.72;;;6.18;66.68
61136;BME280;47021;51.340;12.432;2023-03-07T18:32:38;98269.75;;;6.30;66.21
61136;BME280;47021;51.340;12.432;2023-03-07T18:52:29;98284.25;;;6.23;66.47
61136;BME280;47021;51.340;12.432;2023-03-07T18:55:13;98277.25;;;6.23;66.58
61136;BME280;47021;51.340;12.432;2023-03-07T18:58:12;98275.31;;;6.08;66.85
61136;BME280;47021;51.340;12.432;2023-03-07T19:03:30;98274.81;;;6.22;66.73
61136;BME280;47021;51.340;12.432;2023-03-07T19:05:57;98277.81;;;6.27;66.60
61136;BME280;47021;51.340;12.432;2023-03-07T19:11:10;98280.41;;;6.27;66.62
61136;BME280;47021;51.340;12.432;2023-03-07T22:34:01;98460.56;;;4.78;70.57
61136;BME280;47021;51.340;12.432;2023-03-07T22:36:26;98461.56;;;4.56;71.41
61136;BME280;47021;51.340;12.432;2023-03-07T22:39:00;98461.22;;;4.70;70.49
61136;BME280;47021;51.340;12.432;2023-03-07T23:38:11;98493.31;;;5.36;67.96
61136;BME280;47021;51.340;12.432;2023-03-07T23:40:37;98495.41;;;5.52;67.84
61136;BME280;47021;51.340;12.432;2023-03-07T23:43:03;98492.91;;;5.22;68.04
